Time;durP1;ratioP1;P1;durP2;ratioP2;P2;SDS_P1;SDS_P2;PMS_P1;PMS_P2;Temp;Humidity;BMP_temperature;BMP_pressure;BME280_temperature;BME280_humidity;BME280_pressure;Samples;Min_cycle;Max_cycle;Signal;HPM_P1;HPM_P2
2023/03/08 00:00:12;;;;;;;7.07;4.18;;;256.60;2022.40;;;;;;4970735;28;20066;-53
2023/03/08 00:02:37;;;;;;;7.88;3.65;;;256.60;2022.40;;;;;;4970598;28;20040;-53
2023/03/08 00:05:04;;;;;;;6.53;3.42;;;256.60;2022.40;;;;;;4970429;28;20030;-54
2023/03/08 00:07:30;;;;;;;7.40;4.35;;;256.60;1996.80;;;;;;4969450;28;20034;-54
2023/03/08 00:09:56;;;;;;;14.82;4.25;;;256.60;1996.80;;;;;;4970964;28;20030;-53
2023/03/08 00:12:22;;;;;;;10.05;5.22;;;256.60;1996.80;;;;;;4970582;28;20041;-53
2023/03/08 00:14:48;;;;;;;33.88;19.02;;;256.60;1996.80;;;;;;4970285;28;20113;-53
2023/03/08 00:17:15;;;;;;;44.40;25.67;;;256.40;2048.00;;;;;;4953593;28;20125;-53
2023/03/08 00:19:40;;;;;;;61.90;38.83;;;256.40;2048.00;;;;;;4970357;28;20073;-53
2023/03/08 00:22:07;;;;;;;96.47;57.17;;;231.30;2124.80;;;;;;4970913;28;20019;-53
2023/03/08 00:24:32;;;;;;;44.85;28.15;;;231.20;2124.80;;;;;;4970258;28;20044;-55
2023/03/08 00:26:58;;;;;;;46.08;25.38;;;231.00;2150.40;;;;;;4970808;28;20484;-53
2023/03/08 00:29:24;;;;;;;25.67;17.15;;;231.00;2150.40;;;;;;4969969;28;20027;-53
2023/03/08 00:31:49;;;;;;;33.00;20.30;;;231.00;2124.80;;;;;;4970314;28;20031;-53
2023/03/08 00:34:16;;;;;;;29.15;18.40;;;231.00;2150.40;;;;;;4952564;28;20062;-53
2023/03/08 00:36:41;;;;;;;22.80;13.45;;;231.00;2150.40;;;;;;4970306;28;20037;-54
2023/03/08 00:39:08;;;;;;;30.75;19.55;;;231.00;2150.40;;;;;;4970207;28;20039;-52
2023/03/08 00:41:34;;;;;;;19.73;13.48;;;231.00;2150.40;;;;;;4970295;28;20417;-52
2023/03/08 00:44:00;;;;;;;10.25;7.28;;;231.00;2150.40;;;;;;4970076;28;20042;-54
2023/03/08 00:46:25;;;;;;;14.43;9.05;;;231.10;2124.80;;;;;;4970818;28;20026;-53
2023/03/08 00:48:51;;;;;;;44.53;27.73;;;231.10;2124.80;;;;;;4969993;28;20163;-53
2023/03/08 00:51:18;;;;;;;68.45;41.10;;;231.20;2124.80;;;;;;4970282;28;20102;-54
2023/03/08 00:53:44;;;;;;;146.95;86.15;;;230.90;2201.60;;;;;;4970244;28;20042;-53
2023/03/08 00:56:11;;;;;;;78.50;45.22;;;230.70;2252.80;;;;;;4969940;28;20054;-55
2023/03/08 00:58:38;;;;;;;96.50;58.17;;;230.60;2252.80;;;;;;4970120;28;20502;-53
2023/03/08 01:01:04;;;;;;;90.00;58.95;;;230.60;2252.80;;;;;;4970216;28;20393;-52
2023/03/08 01:03:30;;;;;;;69.65;45.63;;;230.50;2252.80;;;;;;4970326;28;20049;-54
2023/03/08 01:05:57;;;;;;;66.22;41.83;;;230.50;2252.80;;;;;;4972096;28;20437;-53
2023/03/08 01:08:24;;;;;;;41.45;25.15;;;230.50;2252.80;;;;;;4973480;28;20023;-53
2023/03/08 01:10:58;;;;;;;30.15;20.23;;;230.50;2252.80;;;;;;4973618;28;20035;-53
2023/03/08 01:13:32;;;;;;;22.20;14.00;;;231.10;2252.80;;;;;;4973453;28;20023;-53
2023/03/08 01:15:59;;;;;;;43.80;27.05;;;230.60;2252.80;;;;;;4973543;28;20038;-54
2023/03/08 01:18:25;;;;;;;22.40;10.80;;;230.60;2252.80;;;;;;4973980;28;20369;-53
2023/03/08 01:20:59;;;;;;;12.75;5.80;;;230.60;2252.80;;;;;;4973304;28;20092;-53
2023/03/08 01:23:25;;;;;;;14.38;8.60;;;230.80;2227.20;;;;;;4973458;28;20038;-53
2023/03/08 01:26:01;;;;;;;42.58;26.30;;;230.80;2201.60;;;;;;4973328;28;20030;-53
2023/03/08 01:28:28;;;;;;;12.98;8.90;;;230.80;2201.60;;;;;;4973515;28;20069;-53
2023/03/08 01:30:53;;;;;;;11.68;6.28;;;230.90;2176.00;;;;;;4973104;28;20022;-53
2023/03/08 01:33:20;;;;;;;14.95;8.07;;;230.90;2176.00;;;;;;4973313;28;20382;-52
2023/03/08 01:35:46;;;;;;;15.88;9.98;;;230.90;2201.60;;;;;;4973334;28;20157;-53
2023/03/08 01:38:12;;;;;;;11.60;7.05;;;230.70;2227.20;;;;;;4973099;28;20470;-53
2023/03/08 01:40:38;;;;;;;9.15;6.28;;;230.80;2201.60;;;;;;4972980;28;20035;-53
2023/03/08 01:43:22;;;;;;;12.95;7.63;;;230.80;2201.60;;;;;;4973079;28;20030;-53
2023/03/08 01:46:03;;;;;;;13.85;8.88;;;230.80;2201.60;;;;;;4973177;28;20081;-53
2023/03/08 01:48:32;;;;;;;12.95;7.93;;;230.90;2201.60;;;;;;4972964;28;20043;-54
2023/03/08 01:51:01;;;;;;;12.85;7.55;;;230.80;2227.20;;;;;;4973523;28;20046;-52
2023/03/08 01:53:27;;;;;;;16.80;9.05;;;230.80;2227.20;;;;;;4972766;28;20035;-53
2023/03/08 01:55:54;;;;;;;32.30;20.88;;;230.80;2227.20;;;;;;4972908;28;20015;-53
2023/03/08 01:58:20;;;;;;;26.88;15.98;;;230.70;2252.80;;;;;;4970579;28;20030;-54
2023/03/08 02:00:46;;;;;;;21.38;14.60;;;230.80;2227.20;;;;;;4962307;28;20038;-53
2023/03/08 02:03:11;;;;;;;29.23;18.20;;;230.90;2201.60;;;;;;4972538;28;20054;-53
2023/03/08 02:05:42;;;;;;;45.72;27.73;;;230.80;2227.20;;;;;;4972772;28;20019;-53
2023/03/08 02:08:08;;;;;;;30.75;17.67;;;230.80;2227.20;;;;;;4972654;28;20111;-54
2023/03/08 02:10:35;;;;;;;17.83;12.93;;;230.80;2227.20;;;;;;4972674;28;20440;-53
2023/03/08 02:13:06;;;;;;;20.08;12.80;;;230.90;2201.60;;;;;;4972741;28;20054;-54
2023/03/08 02:15:31;;;;;;;21.40;11.82;;;230.90;2176.00;;;;;;4972551;28;20034;-54
2023/03/08 02:17:57;;;;;;;10.45;6.45;;;231.00;2176.00;;;;;;4972113;28;20538;-54
2023/03/08 02:20:30;;;;;;;9.65;5.18;;;231.00;2150.40;;;;;;4972339;28;20130;-53
2023/03/08 02:23:07;;;;;;;12.35;5.82;;;231.20;2099.20;;;;;;4972208;28;20026;-54
2023/03/08 02:25:33;;;;;;;9.10;6.07;;;231.10;2150.40;;;;;;4972401;28;20027;-54
2023/03/08 02:27:59;;;;;;;18.92;11.05;;;231.10;2124.80;;;;;;4972300;28;20077;-55
2023/03/08 02:30:29;;;;;;;22.27;13.38;;;231.10;2150.40;;;;;;4972130;28;20077;-54
2023/03/08 02:32:55;;;;;;;26.23;15.02;;;230.80;2201.60;;;;;;4972476;28;20469;-53
2023/03/08 02:35:21;;;;;;;25.92;17.05;;;230.80;2201.60;;;;;;4971932;28;20089;-54
2023/03/08 02:37:47;;;;;;;20.17;11.82;;;230.70;2201.60;;;;;;4972026;28;20023;-52
2023/03/08 02:40:13;;;;;;;24.35;13.05;;;230.90;2176.00;;;;;;4971715;28;20042;-53
2023/03/08 02:42:39;;;;;;;17.90;10.77;;;230.90;2176.00;;;;;;4972232;28;20405;-55
2023/03/08 02:45:05;;;;;;;6.85;4.43;;;231.00;2150.40;;;;;;4971789;28;20034;-54
2023/03/08 02:47:33;;;;;;;11.75;5.88;;;231.20;2099.20;;;;;;4971750;28;20054;-54
2023/03/08 02:49:59;;;;;;;12.73;7.35;;;231.30;2099.20;;;;;;4971471;28;20110;-55
2023/03/08 02:52:24;;;;;;;19.00;11.20;;;256.20;2073.60;;;;;;4972216;28;20034;-54
2023/03/08 02:54:50;;;;;;;8.82;6.72;;;256.00;2099.20;;;;;;4971639;28;20081;-54
2023/03/08 02:57:16;;;;;;;12.63;5.90;;;256.00;2099.20;;;;;;4972143;28;20369;-54
2023/03/08 02:59:41;;;;;;;13.65;7.13;;;256.10;2073.60;;;;;;4971169;28;20070;-53
2023/03/08 03:02:07;;;;;;;9.35;5.05;;;256.20;2073.60;;;;;;4971925;28;20054;-53
2023/03/08 03:04:33;;;;;;;6.25;3.90;;;256.40;2048.00;;;;;;4971175;28;20389;-54
2023/03/08 03:07:00;;;;;;;18.30;12.30;;;256.50;2022.40;;;;;;4971784;28;20026;-55
2023/03/08 03:09:26;;;;;;;15.18;9.43;;;256.30;2048.00;;;;;;4953969;28;20449;-54
2023/03/08 03:11:52;;;;;;;20.92;14.73;;;256.20;2048.00;;;;;;4971503;28;20030;-53
2023/03/08 03:14:18;;;;;;;15.05;8.68;;;256.20;2073.60;;;;;;4971827;28;20373;-55
2023/03/08 03:16:44;;;;;;;13.50;9.60;;;256.30;2022.40;;;;;;4971270;28;20026;-55
2023/03/08 03:19:09;;;;;;;16.75;8.75;;;256.20;2048.00;;;;;;4971183;28;20110;-55
2023/03/08 03:21:36;;;;;;;14.00;8.98;;;256.20;2048.00;;;;;;4971263;28;20038;-53
2023/03/08 03:24:02;;;;;;;10.38;6.55;;;256.20;2048.00;;;;;;4971089;28;20106;-53
2023/03/08 03:26:28;;;;;;;10.95;7.75;;;256.30;2022.40;;;;;;4971535;28;20071;-55
2023/03/08 03:28:57;;;;;;;15.23;7.63;;;256.30;2048.00;;;;;;4969889;28;20082;-54
2023/03/08 03:31:25;;;;;;;11.13;7.22;;;256.20;2048.00;;;;;;4970682;28;20042;-53
2023/03/08 03:33:51;;;;;;;14.07;8.20;;;256.20;2048.00;;;;;;4970987;28;20444;-54
2023/03/08 03:36:19;;;;;;;12.52;7.00;;;256.20;2048.00;;;;;;4953769;28;20049;-53
2023/03/08 03:38:46;;;;;;;11.38;7.63;;;256.20;2048.00;;;;;;4971278;28;20030;-53
2023/03/08 03:41:17;;;;;;;15.95;9.85;;;256.10;2048.00;;;;;;4971121;28;20114;-55
2023/03/08 03:43:43;;;;;;;15.18;9.30;;;256.10;2073.60;;;;;;4970980;28;20023;-53
2023/03/08 03:46:17;;;;;;;13.98;7.65;;;256.10;2073.60;;;;;;4971026;28;20027;-55
2023/03/08 03:48:43;;;;;;;15.23;10.55;;;256.20;2048.00;;;;;;4958874;28;20097;-55
2023/03/08 03:51:13;;;;;;;17.33;10.55;;;256.10;2048.00;;;;;;4970869;28;20038;-53
2023/03/08 03:53:39;;;;;;;16.15;10.60;;;256.20;2048.00;;;;;;4970843;28;20027;-55
2023/03/08 03:56:06;;;;;;;15.13;8.30;;;256.20;2048.00;;;;;;4965576;28;20105;-54
2023/03/08 03:58:32;;;;;;;12.43;8.43;;;256.10;2048.00;;;;;;4951621;28;20130;-52
2023/03/08 04:00:58;;;;;;;19.13;13.07;;;256.10;2048.00;;;;;;4951624;28;20094;-54
2023/03/08 04:03:25;;;;;;;15.45;9.60;;;256.20;2073.60;;;;;;4953233;28;20031;-55
2023/03/08 04:05:51;;;;;;;15.70;8.77;;;256.30;2048.00;;;;;;4970638;28;20478;-55
2023/03/08 04:08:17;;;;;;;10.98;5.93;;;256.20;2048.00;;;;;;4970800;28;20027;-54
2023/03/08 04:10:42;;;;;;;14.95;8.95;;;256.20;2022.40;;;;;;4970939;28;20056;-54
2023/03/08 04:13:10;;;;;;;18.40;10.10;;;256.20;2022.40;;;;;;4970537;28;20042;-53
2023/03/08 04:15:36;;;;;;;40.67;17.75;;;256.20;2048.00;;;;;;4970642;28;20042;-50
2023/03/08 04:18:02;;;;;;;80.82;38.22;;;256.40;2022.40;;;;;;4970408;28;20023;-53
2023/03/08 04:20:27;;;;;;;74.85;34.28;;;256.30;2048.00;;;;;;4960407;28;20126;-53
2023/03/08 04:22:53;;;;;;;53.95;28.33;;;256.20;2048.00;;;;;;4951230;28;20079;-53
2023/03/08 04:25:19;;;;;;;40.88;23.00;;;256.20;2022.40;;;;;;4951823;28;20019;-55
2023/03/08 04:27:45;;;;;;;37.72;26.88;;;256.30;2022.40;;;;;;4958392;28;20030;-53
2023/03/08 04:30:11;;;;;;;90.18;59.25;;;256.30;2048.00;;;;;;4969970;28;20386;-55
2023/03/08 04:32:37;;;;;;;109.28;63.08;;;256.30;2022.40;;;;;;4970668;28;20030;-53
2023/03/08 04:35:04;;;;;;;58.33;35.85;;;256.30;2022.40;;;;;;4970066;28;20026;-55
2023/03/08 04:37:30;;;;;;;13.73;9.63;;;256.20;2073.60;;;;;;4970505;28;20031;-55
2023/03/08 04:39:55;;;;;;;15.50;8.48;;;256.20;2022.40;;;;;;4970311;28;20158;-53
2023/03/08 04:42:21;;;;;;;42.05;25.70;;;256.20;1996.80;;;;;;4974095;28;20058;-54
2023/03/08 04:44:47;;;;;;;23.95;13.98;;;256.20;2022.40;;;;;;4974046;28;20019;-53
2023/03/08 04:47:12;;;;;;;58.05;36.35;;;256.10;2073.60;;;;;;4973833;28;20031;-53
2023/03/08 04:49:38;;;;;;;13.10;7.90;;;256.20;2022.40;;;;;;4973835;28;20055;-54
2023/03/08 04:52:04;;;;;;;107.97;56.55;;;256.10;2022.40;;;;;;4973989;28;20414;-56
2023/03/08 04:54:30;;;;;;;23.25;11.30;;;256.10;2048.00;;;;;;4973717;28;20469;-55
2023/03/08 04:56:56;;;;;;;13.18;7.15;;;256.20;1996.80;;;;;;4974112;28;20023;-54
2023/03/08 04:59:22;;;;;;;24.17;7.60;;;256.10;2022.40;;;;;;4973487;28;20039;-55
2023/03/08 05:01:47;;;;;;;13.95;9.30;;;256.10;2022.40;;;;;;4973674;28;20074;-53
2023/03/08 05:04:13;;;;;;;15.32;9.93;;;256.10;2048.00;;;;;;4973281;28;20030;-54
2023/03/08 05:06:39;;;;;;;228.55;159.05;;;256.10;2022.40;;;;;;4973557;28;20106;-53
2023/03/08 05:09:05;;;;;;;63.55;43.60;;;256.20;2022.40;;;;;;4973762;28;20493;-55
2023/03/08 05:11:31;;;;;;;26.63;16.05;;;256.10;2048.00;;;;;;4973147;28;20065;-53
2023/03/08 05:13:58;;;;;;;14.68;8.88;;;256.20;1996.80;;;;;;4973455;28;20058;-53
2023/03/08 05:16:25;;;;;;;23.60;12.20;;;256.20;1996.80;;;;;;4973621;28;20027;-53
2023/03/08 05:18:51;;;;;;;27.52;16.20;;;256.10;2022.40;;;;;;4973636;28;20027;-53
2023/03/08 05:21:19;;;;;;;19.30;8.27;;;256.10;2048.00;;;;;;4973473;28;20106;-53
2023/03/08 05:23:45;;;;;;;15.38;8.85;;;256.10;1996.80;;;;;;4973720;28;20352;-54
2023/03/08 05:26:14;;;;;;;18.65;8.35;;;256.20;1996.80;;;;;;4973008;28;20031;-54
2023/03/08 05:28:40;;;;;;;9.27;5.32;;;256.30;1971.20;;;;;;4960310;28;20062;-54
2023/03/08 05:31:09;;;;;;;23.88;13.52;;;256.50;1945.60;;;;;;4959876;28;20023;-53
2023/03/08 05:33:36;;;;;;;18.52;11.15;;;256.60;1945.60;;;;;;4973190;28;20043;-53
2023/03/08 05:36:01;;;;;;;99.72;41.95;;;256.80;1920.00;;;;;;4972754;28;20057;-54
2023/03/08 05:38:28;;;;;;;63.85;30.52;;;281.60;1920.00;;;;;;4973346;28;20110;-53
2023/03/08 05:40:54;;;;;;;27.17;15.18;;;281.80;1894.40;;;;;;4973248;28;20038;-53
2023/03/08 05:43:21;;;;;;;14.27;8.43;;;282.00;1894.40;;;;;;4973184;28;20030;-53
2023/03/08 05:45:58;;;;;;;25.02;13.85;;;282.00;1894.40;;;;;;4972966;28;20109;-54
2023/03/08 05:48:24;;;;;;;46.58;29.02;;;282.00;1920.00;;;;;;4973035;28;20459;-54
2023/03/08 05:50:50;;;;;;;65.53;40.13;;;282.00;1945.60;;;;;;4972749;28;20035;-53
2023/03/08 05:53:16;;;;;;;51.97;33.75;;;281.60;2022.40;;;;;;4972063;28;20469;-53
2023/03/08 05:55:42;;;;;;;36.83;23.30;;;256.90;2048.00;;;;;;4972685;28;20027;-53
2023/03/08 05:58:07;;;;;;;54.08;48.40;;;256.80;2022.40;;;;;;4972983;28;20026;-53
2023/03/08 06:00:33;;;;;;;44.35;31.65;;;256.90;2022.40;;;;;;4972434;28;20583;-53
2023/03/08 06:03:02;;;;;;;230.00;115.25;;;281.70;2022.40;;;;;;4972778;28;20023;-54
2023/03/08 06:05:28;;;;;;;41.58;24.60;;;281.80;1971.20;;;;;;4972604;28;20409;-53
2023/03/08 06:07:54;;;;;;;40.50;23.58;;;282.10;1945.60;;;;;;4972953;28;20106;-53
2023/03/08 06:10:20;;;;;;;215.27;107.60;;;282.40;1894.40;;;;;;4972469;28;20440;-55
2023/03/08 06:12:46;;;;;;;38.50;20.80;;;282.50;1894.40;;;;;;4973043;28;20031;-53
2023/03/08 06:15:12;;;;;;;118.22;53.83;;;307.20;1894.40;;;;;;4972604;28;20034;-53
2023/03/08 06:17:38;;;;;;;28.05;12.40;;;307.40;1894.40;;;;;;4972376;28;20023;-54
2023/03/08 06:20:05;;;;;;;47.30;30.13;;;307.50;1894.40;;;;;;4972057;28;20037;-53
2023/03/08 06:22:31;;;;;;;69.47;49.45;;;307.50;1996.80;;;;;;4972472;28;20110;-53
2023/03/08 06:24:57;;;;;;;72.43;51.90;;;307.20;1971.20;;;;;;4972364;28;20050;-54
2023/03/08 06:27:22;;;;;;;153.93;99.47;;;307.40;1971.20;;;;;;4972071;28;20444;-54
2023/03/08 06:29:49;;;;;;;88.38;68.68;;;333.40;1868.80;;;;;;4972306;28;20078;-54
2023/03/08 06:32:15;;;;;;;68.30;49.28;;;384.50;1766.40;;;;;;4971524;28;20035;-54
2023/03/08 06:34:41;;;;;;;69.70;49.92;;;410.50;1664.00;;;;;;4959927;28;20129;-55
2023/03/08 06:37:07;;;;;;;58.15;50.17;;;436.00;1561.60;;;;;;4972251;28;20019;-56
2023/03/08 06:39:33;;;;;;;66.72;51.40;;;461.50;1510.40;;;;;;4971974;28;20046;-55
2023/03/08 06:42:02;;;;;;;70.55;55.63;;;512.20;1433.60;;;;;;4972207;28;20370;-57
2023/03/08 06:44:28;;;;;;;72.78;49.53;;;512.70;1382.40;;;;;;4972298;28;20489;-56
2023/03/08 06:46:54;;;;;;;125.35;104.38;;;487.30;1433.60;;;;;;4954721;28;20455;-56
2023/03/08 06:49:20;;;;;;;100.70;79.43;;;486.80;1484.80;;;;;;4971393;28;20069;-56
2023/03/08 06:51:46;;;;;;;60.55;49.17;;;486.40;1484.80;;;;;;4971924;28;20034;-55
2023/03/08 06:54:16;;;;;;;20.40;14.85;;;460.90;1536.00;;;;;;4971645;28;20033;-55
2023/03/08 06:56:45;;;;;;;14.95;11.20;;;460.80;1536.00;;;;;;4971419;28;20033;-55
2023/03/08 06:59:13;;;;;;;48.47;38.33;;;435.80;1536.00;;;;;;4971445;28;20044;-54
2023/03/08 07:01:39;;;;;;;20.50;11.32;;;435.60;1612.80;;;;;;4971525;28;20477;-56
2023/03/08 07:04:05;;;;;;;20.52;15.15;;;487.00;1484.80;;;;;;4953781;28;20109;-56
2023/03/08 07:06:31;;;;;;;16.20;13.32;;;538.20;1382.40;;;;;;4971241;28;20050;-57
2023/03/08 07:08:56;;;;;;;126.72;93.63;;;564.00;1331.20;;;;;;4971684;28;20029;-55
2023/03/08 07:11:22;;;;;;;89.47;65.78;;;563.80;1356.80;;;;;;4971473;28;20113;-56
2023/03/08 07:13:48;;;;;;;56.60;44.05;;;589.60;1280.00;;;;;;4971533;28;20457;-57
2023/03/08 07:16:14;;;;;;;150.77;124.88;;;563.80;1305.60;;;;;;4971307;28;20027;-64
2023/03/08 07:18:40;;;;;;;129.75;107.70;;;563.60;1382.40;;;;;;4953510;28;20039;-64
2023/03/08 07:21:06;;;;;;;115.15;101.28;;;563.50;1382.40;;;;;;4971044;28;20508;-62
2023/03/08 07:23:32;;;;;;;146.18;121.07;;;563.90;1331.20;;;;;;4970731;28;20034;-64
2023/03/08 07:25:58;;;;;;;139.63;120.95;;;589.40;1331.20;;;;;;4971856;28;20109;-64
2023/03/08 07:28:24;;;;;;;146.15;130.15;;;640.10;1254.40;;;;;;4968624;28;20030;-65
2023/03/08 07:30:52;;;;;;;142.00;126.47;;;640.20;1254.40;;;;;;4951722;28;20031;-66
2023/03/08 07:33:19;;;;;;;151.10;129.10;;;640.70;1228.80;;;;;;4967041;28;20031;-66
2023/03/08 07:35:45;;;;;;;162.05;133.75;;;640.40;1280.00;;;;;;4953953;28;20042;-65
2023/03/08 07:38:12;;;;;;;174.13;142.73;;;691.40;1228.80;;;;;;4970683;28;20109;-65
2023/03/08 07:40:38;;;;;;;172.07;137.65;;;691.70;1228.80;;;;;;4971058;28;20450;-66
2023/03/08 07:43:03;;;;;;;163.77;142.90;;;717.10;1203.20;;;;;;4970781;28;20098;-64
2023/03/08 07:45:29;;;;;;;83.32;73.80;;;742.60;1177.60;;;;;;4970702;28;20065;-63
2023/03/08 07:47:55;;;;;;;67.00;54.67;;;743.30;1100.80;;;;;;4971174;28;20330;-65
2023/03/08 07:50:21;;;;;;;37.70;33.50;;;768.40;1049.60;;;;;;4970383;28;20055;-64
2023/03/08 07:52:47;;;;;;;54.60;48.35;;;692.10;1075.20;;;;;;4971312;28;20102;-63
2023/03/08 07:55:14;;;;;;;31.02;26.83;;;691.20;1152.00;;;;;;4970802;28;20027;-64
2023/03/08 07:57:40;;;;;;;18.95;16.60;;;614.40;1228.80;;;;;;4957707;28;20165;-63
2023/03/08 08:00:06;;;;;;;31.73;26.48;;;615.20;1203.20;;;;;;4971010;28;20512;-64
2023/03/08 08:02:36;;;;;;;36.63;29.17;;;666.30;1152.00;;;;;;4970204;28;20043;-63
2023/03/08 08:05:03;;;;;;;14.20;11.35;;;666.40;1126.40;;;;;;4968193;28;20058;-63
2023/03/08 08:07:29;;;;;;;17.20;11.20;;;666.30;1100.80;;;;;;4970576;28;20458;-63
2023/03/08 08:09:55;;;;;;;34.53;30.85;;;692.00;1049.60;;;;;;4970692;28;20062;-62
2023/03/08 08:12:22;;;;;;;14.60;11.90;;;768.30;1024.00;;;;;;4970550;28;20034;-63
2023/03/08 08:14:51;;;;;;;23.10;20.55;;;717.20;1049.60;;;;;;4970750;28;20394;-63
2023/03/08 08:17:21;;;;;;;26.05;21.17;;;742.60;1075.20;;;;;;4974623;28;20019;-63
2023/03/08 08:19:47;;;;;;;15.80;14.15;;;794.20;998.40;;;;;;4974320;28;20396;-63
2023/03/08 08:22:13;;;;;;;17.70;15.80;;;743.00;1024.00;;;;;;4974594;28;20025;-63
2023/03/08 08:24:39;;;;;;;24.08;21.77;;;794.20;972.80;;;;;;4974478;28;20023;-63
2023/03/08 08:27:05;;;;;;;12.30;9.73;;;794.50;972.80;;;;;;4974822;28;20070;-63
2023/03/08 08:29:31;;;;;;;35.83;30.52;;;845.20;921.60;;;;;;4974149;28;20031;-62
2023/03/08 08:31:57;;;;;;;40.78;32.45;;;870.40;921.60;;;;;;4974848;28;20031;-62
2023/03/08 08:34:23;;;;;;;34.65;28.95;;;845.70;921.60;;;;;;4974415;28;20026;-64
2023/03/08 08:36:50;;;;;;;148.02;129.07;;;845.70;896.00;;;;;;4974558;28;20419;-63
2023/03/08 08:39:16;;;;;;;71.30;63.85;;;845.40;896.00;;;;;;4960725;28;20031;-64
2023/03/08 08:41:42;;;;;;;74.00;65.45;;;870.80;870.40;;;;;;4974362;28;20023;-63
2023/03/08 08:44:07;;;;;;;75.88;68.15;;;844.90;896.00;;;;;;4962917;28;20481;-63
2023/03/08 08:46:33;;;;;;;27.35;22.50;;;845.40;896.00;;;;;;4954328;28;20038;-63
2023/03/08 08:49:00;;;;;;;13.45;12.23;;;845.70;896.00;;;;;;4954353;28;20083;-63
2023/03/08 08:51:26;;;;;;;77.82;69.78;;;845.40;896.00;;;;;;4954615;28;20039;-64
2023/03/08 08:53:53;;;;;;;69.53;62.42;;;845.70;870.40;;;;;;4954456;28;20031;-64
2023/03/08 08:56:22;;;;;;;7.95;6.65;;;844.90;896.00;;;;;;4972164;28;20488;-64
2023/03/08 08:58:48;;;;;;;8.93;8.13;;;845.20;896.00;;;;;;4974122;28;20023;-63
2023/03/08 09:01:20;;;;;;;31.00;27.85;;;845.50;870.40;;;;;;4974081;28;20398;-63
2023/03/08 09:03:47;;;;;;;72.13;63.53;;;870.50;870.40;;;;;;4973878;28;20030;-67
2023/03/08 09:06:14;;;;;;;34.55;30.77;;;845.40;870.40;;;;;;4973768;28;20474;-68
2023/03/08 09:08:40;;;;;;;12.27;11.05;;;870.60;870.40;;;;;;4973454;28;20029;-67
2023/03/08 09:11:08;;;;;;;99.25;89.80;;;870.60;870.40;;;;;;4973952;28;20023;-67
2023/03/08 09:13:37;;;;;;;45.15;40.72;;;844.90;896.00;;;;;;4973540;28;20030;-67
2023/03/08 09:16:03;;;;;;;102.55;92.07;;;794.40;921.60;;;;;;4973481;28;20489;-67
2023/03/08 09:18:28;;;;;;;31.98;28.77;;;794.00;921.60;;;;;;4973756;28;20122;-66
2023/03/08 09:20:54;;;;;;;41.03;36.85;;;793.70;921.60;;;;;;4973560;28;20389;-66
2023/03/08 09:23:20;;;;;;;21.42;19.13;;;743.10;921.60;;;;;;4973512;28;20026;-66
2023/03/08 09:25:54;;;;;;;48.83;43.10;;;717.20;972.80;;;;;;4970104;28;20043;-66
2023/03/08 09:28:20;;;;;;;142.40;128.23;;;666.00;1024.00;;;;;;4953888;28;20023;-66
2023/03/08 09:30:46;;;;;;;19.70;15.98;;;640.20;1049.60;;;;;;4963960;28;20046;-66
2023/03/08 09:33:11;;;;;;;8.52;7.22;;;615.20;1075.20;;;;;;4972885;28;20544;-66
2023/03/08 09:35:37;;;;;;;5.63;3.83;;;615.30;1075.20;;;;;;4964165;28;20023;-66
2023/03/08 09:38:03;;;;;;;10.98;9.77;;;614.90;1126.40;;;;;;4969610;28;20031;-66
2023/03/08 09:40:47;;;;;;;7.95;6.35;;;589.70;1126.40;;;;;;4973314;28;20130;-66
2023/03/08 09:43:22;;;;;;;11.15;8.32;;;589.70;1100.80;;;;;;4972941;28;20104;-66
2023/03/08 09:45:53;;;;;;;22.63;17.33;;;589.60;1075.20;;;;;;4973029;28;20105;-65
2023/03/08 09:48:28;;;;;;;15.18;9.07;;;589.50;1075.20;;;;;;4957716;28;20031;-65
2023/03/08 09:50:59;;;;;;;10.13;7.47;;;564.10;1126.40;;;;;;4954037;28;20082;-65
2023/03/08 09:53:34;;;;;;;9.45;3.40;;;564.00;1152.00;;;;;;4968336;28;20046;-66
2023/03/08 09:56:08;;;;;;;9.30;6.82;;;564.10;1152.00;;;;;;4970272;28;20018;-67
2023/03/08 09:58:47;;;;;;;12.18;6.60;;;588.90;1152.00;;;;;;4971461;28;20433;-66
2023/03/08 10:01:32;;;;;;;8.32;7.15;;;589.20;1152.00;;;;;;4971049;28;20049;-66
2023/03/08 10:04:07;;;;;;;7.82;4.68;;;589.00;1126.40;;;;;;4960752;28;20027;-65
2023/03/08 10:07:04;;;;;;;13.93;12.27;;;588.90;1152.00;;;;;;4971279;28;20030;-65
2023/03/08 10:09:35;;;;;;;10.48;8.68;;;564.10;1177.60;;;;;;4948993;28;20038;-66
2023/03/08 10:12:01;;;;;;;24.08;16.80;;;564.10;1152.00;;;;;;4971491;28;20026;-66
2023/03/08 10:14:39;;;;;;;36.30;26.95;;;564.10;1152.00;;;;;;4966732;28;20571;-66
2023/03/08 10:17:15;;;;;;;28.45;22.90;;;564.00;1177.60;;;;;;4963008;28;20381;-67
2023/03/08 10:19:58;;;;;;;12.68;7.45;;;563.60;1177.60;;;;;;4969736;28;20481;-66
2023/03/08 10:22:31;;;;;;;11.38;8.77;;;563.60;1203.20;;;;;;4966418;28;20041;-66
2023/03/08 10:25:01;;;;;;;4.88;3.20;;;538.50;1152.00;;;;;;4970211;28;20031;-67
2023/03/08 10:27:32;;;;;;;4.18;3.05;;;538.50;1177.60;;;;;;4971031;28;20394;-67
2023/03/08 10:30:01;;;;;;;100.25;85.50;;;538.40;1203.20;;;;;;4970211;28;20073;-67
2023/03/08 10:32:27;;;;;;;8.05;5.57;;;563.30;1177.60;;;;;;4970418;28;20034;-67
2023/03/08 10:35:03;;;;;;;12.88;8.30;;;563.40;1126.40;;;;;;4969704;28;20030;-67
2023/03/08 10:37:31;;;;;;;12.85;9.25;;;563.30;1126.40;;;;;;4969711;28;20037;-65
2023/03/08 10:40:04;;;;;;;11.73;8.75;;;563.20;1152.00;;;;;;4969879;28;20126;-66
2023/03/08 10:42:30;;;;;;;38.28;31.60;;;538.00;1152.00;;;;;;4968372;28;20417;-66
2023/03/08 10:44:56;;;;;;;20.60;15.68;;;538.10;1177.60;;;;;;4970735;28;20041;-63
2023/03/08 10:47:29;;;;;;;33.17;27.52;;;538.50;1177.60;;;;;;4969878;28;20105;-67
2023/03/08 10:50:12;;;;;;;14.50;7.30;;;563.50;1203.20;;;;;;4952102;28;20493;-64
2023/03/08 10:52:38;;;;;;;11.15;8.25;;;538.40;1152.00;;;;;;4968405;28;20437;-65
2023/03/08 10:55:11;;;;;;;5.53;3.00;;;563.60;1177.60;;;;;;4968748;28;20038;-65
2023/03/08 10:57:38;;;;;;;5.37;4.13;;;538.10;1152.00;;;;;;4970498;28;20023;-65
2023/03/08 11:00:19;;;;;;;5.65;3.05;;;563.30;1228.80;;;;;;4969765;28;20396;-64
2023/03/08 11:02:47;;;;;;;9.15;6.00;;;563.40;1177.60;;;;;;4971775;28;20038;-63
2023/03/08 11:05:32;;;;;;;9.90;6.25;;;564.00;1126.40;;;;;;4972037;28;20367;-64
2023/03/08 11:07:59;;;;;;;20.48;14.35;;;563.60;1177.60;;;;;;4970970;28;20153;-65
2023/03/08 11:10:28;;;;;;;11.07;5.53;;;563.60;1177.60;;;;;;4941903;28;20478;-65
2023/03/08 11:13:30;;;;;;;7.57;5.57;;;563.70;1152.00;;;;;;4970771;28;20110;-63
2023/03/08 11:16:18;;;;;;;9.35;7.20;;;538.40;1126.40;;;;;;4937480;29;20035;-64
2023/03/08 11:18:44;;;;;;;8.77;5.78;;;538.40;1152.00;;;;;;4952125;28;20028;-64
2023/03/08 11:21:22;;;;;;;22.75;17.35;;;538.40;1177.60;;;;;;4967685;28;20098;-64
2023/03/08 11:24:03;;;;;;;31.20;22.08;;;538.40;1152.00;;;;;;4971474;28;20026;-64
2023/03/08 11:26:46;;;;;;;24.92;19.00;;;538.40;1152.00;;;;;;4964396;28;20040;-64
2023/03/08 11:29:30;;;;;;;9.43;7.85;;;563.30;1203.20;;;;;;4951792;28;20106;-64
2023/03/08 11:32:18;;;;;;;;;;;563.80;1100.80;;;;;;4965156;28;20023;-65
2023/03/08 11:34:50;;;;;;;34.47;25.27;;;563.60;1126.40;;;;;;4887728;29;19908;-64
2023/03/08 11:37:43;;;;;;;4.53;3.45;;;563.30;1177.60;;;;;;4892849;29;20577;-64
2023/03/08 11:40:23;;;;;;;13.90;10.55;;;563.20;1228.80;;;;;;4892616;29;20056;-64
2023/03/08 11:43:01;;;;;;;4.63;2.75;;;538.40;1177.60;;;;;;4892440;29;20033;-65
2023/03/08 11:45:58;;;;;;;8.18;3.83;;;537.80;1228.80;;;;;;4892780;29;20067;-66
2023/03/08 11:48:24;;;;;;;5.55;3.13;;;537.80;1254.40;;;;;;4891898;29;20044;-64
2023/03/08 11:50:59;;;;;;;5.38;3.60;;;537.70;1203.20;;;;;;4891630;29;20373;-66
2023/03/08 11:53:53;;;;;;;91.43;72.13;;;537.80;1203.20;;;;;;4892521;29;20032;-65
2023/03/08 11:56:26;;;;;;;;;;;538.00;1203.20;;;;;;4893146;29;20041;-65
2023/03/08 11:59:14;;;;;;;14.70;11.13;;;538.00;1203.20;;;;;;4892389;29;19918;-64
2023/03/08 12:02:09;;;;;;;42.80;30.17;;;538.00;1203.20;;;;;;4892284;29;20092;-64
2023/03/08 12:05:03;;;;;;;154.40;109.13;;;538.00;1203.20;;;;;;4892428;29;20037;-63
2023/03/08 12:07:38;;;;;;;6.05;4.65;;;538.10;1228.80;;;;;;4803294;29;20030;-64
2023/03/08 12:10:22;;;;;;;34.65;24.17;;;538.00;1203.20;;;;;;4818752;29;20038;-64